createdAt,value
2018-08-09T00:00:39.683Z,100.00
2018-08-09T00:03:07.941Z,100.00
2018-08-09T00:05:36.119Z,100.00
2018-08-09T00:08:04.597Z,100.00
2018-08-09T00:10:32.777Z,100.00
2018-08-09T00:13:00.951Z,100.00
2018-08-09T00:15:29.140Z,100.00
2018-08-09T00:17:57.353Z,100.00
2018-08-09T00:20:25.852Z,100.00
2018-08-09T00:22:54.056Z,100.00
2018-08-09T00:25:22.236Z,100.00
2018-08-09T00:27:50.470Z,100.00
2018-08-09T00:30:18.646Z,100.00
2018-08-09T00:32:46.824Z,100.00
2018-08-09T00:35:15.326Z,100.00
2018-08-09T00:37:43.898Z,100.00
2018-08-09T00:40:12.058Z,100.00
2018-08-09T00:42:40.238Z,100.00
2018-08-09T00:45:08.430Z,100.00
2018-08-09T00:47:36.597Z,100.00
2018-08-09T00:50:05.438Z,100.00
2018-08-09T00:52:33.673Z,100.00
2018-08-09T00:55:02.087Z,100.00
2018-08-09T00:57:30.253Z,100.00
2018-08-09T00:59:58.428Z,100.00
2018-08-09T01:02:26.966Z,100.00
2018-08-09T01:04:55.137Z,100.00
2018-08-09T01:07:23.313Z,100.00
2018-08-09T01:09:51.601Z,100.00
2018-08-09T01:12:19.853Z,100.00
2018-08-09T01:14:48.037Z,100.00
2018-08-09T01:17:16.217Z,100.00
2018-08-09T01:19:44.413Z,100.00
2018-08-09T01:22:12.589Z,100.00
2018-08-09T01:24:40.775Z,100.00
2018-08-09T01:27:09.556Z,100.00
2018-08-09T01:29:38.754Z,100.00
2018-08-09T01:32:06.978Z,100.00
2018-08-09T01:34:35.149Z,100.00
2018-08-09T01:37:03.388Z,100.00
2018-08-09T01:39:31.571Z,100.00
2018-08-09T01:42:10.960Z,100.00
2018-08-09T01:44:39.370Z,100.00
2018-08-09T01:47:07.606Z,100.00
2018-08-09T01:49:35.782Z,100.00
2018-08-09T01:52:04.014Z,100.00
2018-08-09T01:54:32.213Z,100.00
2018-08-09T01:57:00.401Z,100.00
2018-08-09T01:59:28.683Z,100.00
2018-08-09T02:01:56.917Z,100.00
2018-08-09T02:04:25.148Z,100.00
2018-08-09T02:06:53.409Z,100.00
2018-08-09T02:09:27.153Z,100.00
2018-08-09T02:11:55.341Z,100.00
2018-08-09T02:14:23.584Z,100.00
2018-08-09T02:16:51.753Z,100.00
2018-08-09T02:19:19.941Z,100.00
2018-08-09T02:21:48.172Z,100.00
2018-08-09T02:24:16.357Z,100.00
2018-08-09T02:26:44.539Z,100.00
2018-08-09T02:29:12.704Z,100.00
2018-08-09T02:31:41.170Z,100.00
2018-08-09T02:34:09.624Z,100.00
2018-08-09T02:36:37.793Z,100.00
2018-08-09T02:39:07.793Z,100.00
2018-08-09T02:41:36.059Z,100.00
2018-08-09T02:44:04.251Z,100.00
2018-08-09T02:46:32.766Z,100.00
2018-08-09T02:49:01.158Z,100.00
2018-08-09T02:51:29.327Z,100.00
2018-08-09T02:53:57.908Z,100.00
2018-08-09T02:56:26.118Z,100.00
2018-08-09T02:58:54.530Z,100.00
2018-08-09T03:01:22.699Z,100.00
2018-08-09T03:03:50.950Z,100.00
2018-08-09T03:06:19.134Z,100.00
2018-08-09T03:08:47.366Z,100.00
2018-08-09T03:11:15.576Z,100.00
2018-08-09T03:13:43.821Z,100.00
2018-08-09T03:16:12.018Z,100.00
2018-08-09T03:18:40.213Z,100.00
2018-08-09T03:21:08.459Z,100.00
2018-08-09T03:23:36.640Z,100.00
2018-08-09T03:26:04.953Z,100.00
2018-08-09T03:28:33.209Z,100.00
2018-08-09T03:31:01.412Z,100.00
2018-08-09T03:33:30.179Z,100.00
2018-08-09T03:36:00.212Z,100.00
2018-08-09T03:38:28.476Z,100.00
2018-08-09T03:40:56.716Z,100.00
2018-08-09T03:43:24.966Z,100.00
2018-08-09T03:45:53.154Z,100.00
2018-08-09T03:48:21.342Z,100.00
2018-08-09T03:50:49.525Z,100.00
2018-08-09T03:53:17.970Z,100.00
2018-08-09T03:55:46.166Z,100.00
2018-08-09T03:58:14.670Z,100.00
2018-08-09T04:00:42.830Z,100.00
2018-08-09T04:03:11.024Z,100.00
2018-08-09T04:05:39.221Z,100.00
2018-08-09T04:08:07.414Z,100.00
2018-08-09T04:10:35.622Z,100.00
2018-08-09T04:13:03.881Z,100.00
2018-08-09T04:15:32.073Z,100.00
2018-08-09T04:18:00.274Z,100.00
2018-08-09T04:20:28.463Z,100.00
2018-08-09T04:22:56.774Z,100.00
2018-08-09T04:25:24.977Z,100.00
2018-08-09T04:27:53.161Z,100.00
2018-08-09T04:30:21.413Z,100.00
2018-08-09T04:32:49.585Z,100.00
2018-08-09T04:35:17.772Z,100.00
2018-08-09T04:37:46.053Z,100.00
2018-08-09T04:40:14.308Z,100.00
2018-08-09T04:42:42.498Z,100.00
2018-08-09T04:45:10.678Z,100.00
2018-08-09T04:47:38.932Z,100.00
2018-08-09T04:50:08.072Z,100.00
2018-08-09T04:52:36.256Z,100.00
2018-08-09T04:55:04.436Z,100.00
2018-08-09T04:57:32.671Z,100.00
2018-08-09T05:00:00.862Z,100.00
2018-08-09T05:02:29.269Z,100.00
2018-08-09T05:04:57.451Z,100.00
2018-08-09T05:07:25.707Z,100.00
2018-08-09T05:09:54.341Z,100.00
2018-08-09T05:12:22.551Z,100.00
2018-08-09T05:14:50.752Z,100.00
2018-08-09T05:17:18.942Z,100.00
2018-08-09T05:19:47.160Z,100.00
2018-08-09T05:22:15.350Z,100.00
2018-08-09T05:24:43.533Z,100.00
2018-08-09T05:27:11.750Z,100.00
2018-08-09T05:29:39.976Z,100.00
2018-08-09T05:32:08.521Z,100.00
2018-08-09T05:34:36.690Z,100.00
2018-08-09T05:37:04.871Z,100.00
2018-08-09T05:39:33.042Z,100.00
2018-08-09T05:42:01.219Z,100.00
2018-08-09T05:44:29.384Z,100.00
2018-08-09T05:46:57.574Z,100.00
2018-08-09T05:49:25.760Z,100.00
2018-08-09T05:51:53.940Z,100.00
2018-08-09T05:54:22.136Z,100.00
2018-08-09T05:56:50.335Z,100.00
2018-08-09T05:59:18.516Z,100.00
2018-08-09T06:01:46.822Z,100.00
2018-08-09T06:04:15.442Z,100.00
2018-08-09T06:06:44.521Z,100.00
2018-08-09T06:09:13.334Z,100.00
2018-08-09T06:11:41.542Z,100.00
2018-08-09T06:14:10.490Z,100.00
2018-08-09T06:16:39.002Z,100.00
2018-08-09T06:19:08.253Z,100.00
2018-08-09T06:21:36.541Z,100.00
2018-08-09T06:24:04.777Z,100.00
2018-08-09T06:26:33.013Z,99.10
2018-08-09T06:29:01.207Z,96.58
2018-08-09T06:31:29.863Z,98.30
2018-08-09T06:33:58.607Z,99.51
2018-08-09T06:36:26.905Z,99.53
2018-08-09T06:38:55.128Z,96.74
2018-08-09T06:41:23.315Z,89.96
2018-08-09T06:43:51.522Z,91.06
2018-08-09T06:46:19.800Z,90.27
2018-08-09T06:48:48.192Z,90.58
2018-08-09T06:51:16.378Z,88.14
2018-08-09T06:53:44.614Z,87.85
2018-08-09T06:56:12.908Z,88.53
2018-08-09T06:58:41.178Z,86.56
2018-08-09T07:01:10.002Z,85.27
2018-08-09T07:03:38.329Z,84.30
2018-08-09T07:06:08.686Z,84.06
2018-08-09T07:08:37.037Z,82.43
2018-08-09T07:11:05.225Z,87.00
2018-08-09T07:13:33.469Z,86.45
2018-08-09T07:16:01.809Z,83.80
2018-08-09T07:18:30.241Z,82.76
2018-08-09T07:20:58.573Z,82.79
2018-08-09T07:23:26.987Z,80.45
2018-08-09T07:25:55.179Z,85.62
2018-08-09T07:28:23.425Z,76.80
2018-08-09T07:30:52.857Z,76.86
2018-08-09T07:33:21.079Z,76.72
2018-08-09T07:35:49.530Z,75.03
2018-08-09T07:38:18.222Z,73.24
2018-08-09T07:40:46.783Z,71.23
2018-08-09T07:43:15.694Z,72.82
2018-08-09T07:45:44.140Z,70.63
2018-08-09T07:48:12.390Z,70.63
2018-08-09T07:50:40.722Z,71.91
2018-08-09T07:53:08.956Z,68.41
2018-08-09T07:55:37.369Z,65.37
2018-08-09T07:58:05.546Z,66.10
2018-08-09T08:00:33.924Z,64.71
2018-08-09T08:03:02.180Z,64.54
2018-08-09T08:05:30.436Z,62.10
2018-08-09T08:07:58.716Z,62.55
2018-08-09T08:10:27.353Z,61.83
2018-08-09T08:12:55.562Z,59.24
2018-08-09T08:15:23.798Z,59.83
2018-08-09T08:17:52.006Z,58.71
2018-08-09T08:20:20.182Z,60.87
2018-08-09T08:22:48.386Z,57.16
2018-08-09T08:25:16.609Z,54.95
2018-08-09T08:27:44.842Z,54.01
2018-08-09T08:30:14.187Z,54.72
2018-08-09T08:32:43.053Z,56.17
2018-08-09T08:35:11.650Z,55.08
2018-08-09T08:37:40.574Z,53.17
2018-08-09T08:40:09.340Z,51.36
2018-08-09T08:42:38.161Z,52.67
2018-08-09T08:45:08.798Z,54.29
2018-08-09T08:47:44.093Z,50.54
2018-08-09T08:50:12.798Z,49.68
2018-08-09T08:52:42.034Z,48.90
2018-08-09T08:55:11.676Z,48.16
2018-08-09T08:57:39.866Z,48.87
2018-08-09T09:00:09.724Z,47.54
2018-08-09T09:02:38.361Z,46.39
2018-08-09T09:05:07.890Z,47.47
2018-08-09T09:07:36.597Z,48.13
2018-08-09T09:10:06.031Z,47.11
2018-08-09T09:12:34.221Z,46.90
2018-08-09T09:15:02.424Z,45.23
2018-08-09T09:17:30.628Z,47.04
2018-08-09T09:19:58.890Z,45.14
2018-08-09T09:22:27.248Z,45.61
2018-08-09T09:24:55.452Z,43.92
2018-08-09T09:27:23.654Z,45.81
2018-08-09T09:29:51.917Z,43.16
2018-08-09T09:32:20.150Z,42.27
2018-08-09T09:34:48.558Z,42.51
2018-08-09T09:37:16.837Z,42.47
2018-08-09T09:39:45.370Z,41.29
2018-08-09T09:42:13.593Z,41.30
2018-08-09T09:44:41.803Z,42.83
2018-08-09T09:47:10.279Z,41.15
2018-08-09T09:49:38.494Z,40.52
2018-08-09T09:52:06.729Z,41.77
2018-08-09T09:54:34.897Z,41.76
2018-08-09T09:57:03.337Z,41.63
2018-08-09T09:59:31.885Z,40.30
2018-08-09T10:02:00.103Z,38.87
2018-08-09T10:04:28.373Z,40.14
2018-08-09T10:06:56.552Z,39.97
2018-08-09T10:09:24.871Z,39.24
2018-08-09T10:11:53.313Z,39.45
2018-08-09T10:14:21.565Z,39.39
2018-08-09T10:16:49.842Z,38.58
2018-08-09T10:19:18.027Z,38.85
2018-08-09T10:21:46.288Z,38.48
2018-08-09T10:24:14.456Z,36.59
2018-08-09T10:26:42.733Z,38.61
2018-08-09T10:29:11.502Z,37.90
2018-08-09T10:31:39.710Z,37.24
2018-08-09T10:34:08.202Z,37.00
2018-08-09T10:36:36.370Z,37.39
2018-08-09T10:39:08.214Z,36.63
2018-08-09T10:41:36.445Z,36.63
2018-08-09T10:44:04.769Z,37.49
2018-08-09T10:46:33.874Z,37.11
2018-08-09T10:49:02.161Z,35.63
2018-08-09T10:51:30.326Z,35.55
2018-08-09T10:53:58.604Z,36.59
2018-08-09T10:56:27.186Z,34.70
2018-08-09T10:58:55.405Z,35.42
2018-08-09T11:01:23.641Z,35.89
2018-08-09T11:03:52.058Z,34.42
2018-08-09T11:06:20.266Z,34.26
2018-08-09T11:08:48.470Z,33.21
2018-08-09T11:11:16.703Z,33.64
2018-08-09T11:13:45.894Z,32.70
2018-08-09T11:16:14.999Z,26.93
2018-08-09T11:18:43.971Z,22.01
2018-08-09T11:21:12.565Z,21.39
2018-08-09T11:23:40.786Z,19.94
2018-08-09T11:26:09.069Z,19.36
2018-08-09T11:28:37.235Z,18.92
2018-08-09T11:31:05.418Z,18.91
2018-08-09T11:33:33.577Z,17.16
2018-08-09T11:36:02.860Z,18.92
2018-08-09T11:38:31.034Z,17.23
2018-08-09T11:40:59.186Z,18.39
2018-08-09T11:43:27.622Z,16.50
2018-08-09T11:45:55.802Z,16.03
2018-08-09T11:48:23.966Z,15.08
2018-08-09T11:50:52.150Z,13.99
2018-08-09T11:53:20.321Z,13.68
2018-08-09T11:55:48.497Z,14.47
2018-08-09T11:58:16.671Z,15.22
2018-08-09T12:00:44.855Z,13.21
2018-08-09T12:03:13.152Z,13.80
2018-08-09T12:05:41.325Z,11.51
2018-08-09T12:08:09.491Z,11.73
2018-08-09T12:10:37.672Z,16.02
2018-08-09T12:13:05.857Z,14.40
2018-08-09T12:15:34.083Z,11.01
2018-08-09T12:18:02.277Z,13.16
2018-08-09T12:20:30.479Z,15.23
2018-08-09T12:22:58.653Z,14.45
2018-08-09T12:25:26.849Z,13.23
2018-08-09T12:27:55.023Z,9.16
2018-08-09T12:30:23.205Z,8.58
2018-08-09T12:32:51.360Z,9.54
2018-08-09T12:35:20.450Z,14.09
2018-08-09T12:37:48.628Z,11.61
2018-08-09T12:40:16.796Z,11.95
2018-08-09T12:42:45.302Z,8.55
2018-08-09T12:45:13.523Z,8.88
2018-08-09T12:47:41.846Z,9.40
2018-08-09T12:50:12.561Z,9.90
2018-08-09T12:52:41.892Z,10.24
2018-08-09T12:55:10.849Z,12.16
2018-08-09T12:57:39.213Z,12.02
2018-08-09T13:00:09.871Z,10.09
2018-08-09T13:02:37.972Z,9.47
2018-08-09T13:05:07.067Z,7.73
2018-08-09T13:07:35.585Z,8.78
2018-08-09T13:10:04.793Z,7.52
2018-08-09T13:12:33.018Z,6.83
2018-08-09T13:15:01.205Z,14.00
2018-08-09T13:17:29.703Z,10.59
2018-08-09T13:19:57.899Z,12.46
2018-08-09T13:22:26.121Z,8.13
2018-08-09T13:24:54.313Z,7.04
2018-08-09T13:27:22.505Z,7.46
2018-08-09T13:29:50.678Z,11.57
2018-08-09T13:32:18.840Z,13.10
2018-08-09T13:34:47.005Z,10.56
2018-08-09T13:37:15.216Z,11.16
2018-08-09T13:39:43.667Z,13.10
2018-08-09T13:42:11.859Z,8.58
2018-08-09T13:44:40.013Z,7.88
2018-08-09T13:47:08.162Z,8.52
2018-08-09T13:49:36.395Z,8.64
2018-08-09T13:52:04.598Z,10.52
2018-08-09T13:54:32.762Z,10.42
2018-08-09T13:57:00.950Z,8.40
2018-08-09T13:59:29.396Z,7.36
2018-08-09T14:01:57.573Z,9.96
2018-08-09T14:04:25.755Z,9.96
2018-08-09T14:06:53.945Z,10.27
2018-08-09T14:09:22.101Z,8.42
2018-08-09T14:11:50.386Z,8.74
2018-08-09T14:14:18.541Z,8.47
2018-08-09T14:16:46.745Z,9.33
2018-08-09T14:19:14.917Z,8.26
2018-08-09T14:21:43.097Z,10.30
2018-08-09T14:24:12.009Z,9.16
2018-08-09T14:26:40.277Z,9.25
2018-08-09T14:29:09.209Z,10.53
2018-08-09T14:31:37.688Z,9.12
2018-08-09T14:34:06.105Z,9.56
2018-08-09T14:36:34.261Z,9.90
2018-08-09T14:39:02.426Z,9.10
2018-08-09T14:41:30.693Z,8.95
2018-08-09T14:43:58.856Z,8.36
2018-08-09T14:46:27.108Z,14.63
2018-08-09T14:48:55.293Z,10.72
2018-08-09T14:51:23.465Z,8.64
2018-08-09T14:53:51.663Z,10.46
2018-08-09T14:56:19.857Z,11.43
2018-08-09T14:58:48.066Z,10.66
2018-08-09T15:01:16.245Z,10.45
2018-08-09T15:03:44.419Z,11.65
2018-08-09T15:06:12.616Z,12.74
2018-08-09T15:08:41.358Z,15.56
2018-08-09T15:11:09.556Z,16.80
2018-08-09T15:13:37.818Z,18.19
2018-08-09T15:16:06.035Z,19.64
2018-08-09T15:18:34.531Z,19.89
2018-08-09T15:21:02.713Z,19.30
2018-08-09T15:23:30.882Z,20.89
2018-08-09T15:25:59.062Z,21.54
2018-08-09T15:28:27.250Z,20.41
2018-08-09T15:30:55.472Z,20.71
2018-08-09T15:33:23.721Z,20.84
2018-08-09T15:35:52.042Z,21.95
2018-08-09T15:38:20.313Z,20.57
2018-08-09T15:40:48.489Z,21.15
2018-08-09T15:43:16.662Z,20.92
2018-08-09T15:45:44.837Z,20.29
2018-08-09T15:48:13.086Z,20.28
2018-08-09T15:50:41.269Z,20.77
2018-08-09T15:53:09.521Z,20.20
2018-08-09T15:55:37.705Z,20.79
2018-08-09T15:58:05.957Z,20.31
2018-08-09T16:00:34.265Z,20.75
2018-08-09T16:03:02.515Z,20.88
2018-08-09T16:05:32.045Z,20.20
2018-08-09T16:08:00.238Z,20.66
2018-08-09T16:10:28.489Z,21.32
2018-08-09T16:12:56.700Z,20.89
2018-08-09T16:15:24.930Z,19.98
2018-08-09T16:17:53.151Z,20.79
2018-08-09T16:20:21.350Z,20.48
2018-08-09T16:22:49.537Z,20.69
2018-08-09T16:25:22.244Z,20.11
2018-08-09T16:27:50.885Z,20.92
2018-08-09T16:30:22.114Z,20.83
2018-08-09T16:32:50.345Z,21.16
2018-08-09T16:35:18.565Z,21.42
2018-08-09T16:37:47.250Z,21.61
2018-08-09T16:40:19.664Z,22.46
2018-08-09T16:42:47.901Z,21.55
2018-08-09T16:45:17.397Z,20.93
2018-08-09T16:47:46.729Z,21.17
2018-08-09T16:50:17.449Z,21.01
2018-08-09T16:52:46.629Z,22.19
2018-08-09T16:55:15.779Z,21.68
2018-08-09T16:57:44.031Z,21.26
2018-08-09T17:00:14.941Z,21.20
2018-08-09T17:02:43.308Z,22.08
2018-08-09T17:05:16.079Z,22.06
2018-08-09T17:07:44.364Z,22.16
2018-08-09T17:10:14.071Z,22.72
2018-08-09T17:12:42.674Z,22.87
2018-08-09T17:15:13.294Z,22.87
2018-08-09T17:17:41.894Z,23.80
2018-08-09T17:20:13.502Z,23.73
2018-08-09T17:22:42.410Z,24.33
2018-08-09T17:25:12.422Z,24.28
2018-08-09T17:27:41.742Z,24.19
2018-08-09T17:30:11.126Z,24.67
2018-08-09T17:32:40.402Z,24.88
2018-08-09T17:35:09.818Z,25.53
2018-08-09T17:37:39.358Z,25.71
2018-08-09T17:40:11.418Z,25.50
2018-08-09T17:42:42.183Z,26.22
2018-08-09T17:45:11.742Z,26.39
2018-08-09T17:47:40.059Z,27.09
2018-08-09T17:50:09.829Z,27.29
2018-08-09T17:52:38.995Z,27.92
2018-08-09T17:55:10.041Z,27.53
2018-08-09T17:57:38.712Z,27.86
2018-08-09T18:00:09.738Z,28.13
2018-08-09T18:02:38.051Z,28.33
2018-08-09T18:05:07.479Z,28.56
2018-08-09T18:07:35.849Z,28.36
2018-08-09T18:10:05.229Z,29.25
2018-08-09T18:12:33.697Z,29.24
2018-08-09T18:15:01.879Z,29.76
2018-08-09T18:17:30.478Z,30.00
2018-08-09T18:19:58.902Z,30.16
2018-08-09T18:22:27.666Z,30.30
2018-08-09T18:24:57.676Z,30.92
2018-08-09T18:27:26.489Z,30.71
2018-08-09T18:29:54.976Z,33.42
2018-08-09T18:32:23.534Z,34.45
2018-08-09T18:34:51.779Z,36.16
2018-08-09T18:37:20.004Z,37.32
2018-08-09T18:39:48.310Z,37.80
2018-08-09T18:42:16.509Z,39.06
2018-08-09T18:44:45.056Z,39.78
2018-08-09T18:47:13.366Z,39.63
2018-08-09T18:49:41.660Z,40.01
2018-08-09T18:52:10.185Z,40.56
2018-08-09T18:54:38.425Z,40.65
2018-08-09T18:57:06.685Z,41.26
2018-08-09T18:59:34.963Z,41.46
2018-08-09T19:02:03.242Z,42.33
2018-08-09T19:04:31.499Z,42.45
2018-08-09T19:06:59.679Z,43.21
2018-08-09T19:09:27.861Z,43.83
2018-08-09T19:11:59.718Z,44.28
2018-08-09T19:14:28.410Z,44.53
2018-08-09T19:16:56.622Z,45.20
2018-08-09T19:19:24.930Z,45.50
2018-08-09T19:21:53.450Z,45.56
2018-08-09T19:24:21.807Z,46.02
2018-08-09T19:26:50.042Z,46.24
2018-08-09T19:29:18.202Z,46.43
2018-08-09T19:31:46.502Z,47.08
2018-08-09T19:34:14.682Z,46.95
2018-08-09T19:36:42.928Z,46.88
2018-08-09T19:39:13.760Z,48.02
2018-08-09T19:41:43.033Z,47.59
2018-08-09T19:44:11.274Z,47.80
2018-08-09T19:46:39.538Z,47.42
2018-08-09T19:49:07.826Z,47.60
2018-08-09T19:51:36.341Z,47.80
2018-08-09T19:54:04.906Z,47.80
2018-08-09T19:56:33.208Z,48.24
2018-08-09T19:59:01.465Z,48.85
2018-08-09T20:01:29.631Z,48.89
2018-08-09T20:03:57.856Z,49.20
2018-08-09T20:06:26.130Z,48.97
2018-08-09T20:08:54.363Z,49.08
2018-08-09T20:11:22.665Z,48.60
2018-08-09T20:13:50.839Z,48.21
2018-08-09T20:16:19.019Z,47.73
2018-08-09T20:18:47.259Z,48.08
2018-08-09T20:21:15.441Z,48.27
2018-08-09T20:23:43.598Z,48.00
2018-08-09T20:26:11.786Z,47.60
2018-08-09T20:28:39.990Z,47.32
2018-08-09T20:31:08.223Z,46.66
2018-08-09T20:33:36.533Z,46.17
2018-08-09T20:36:04.728Z,46.42
2018-08-09T20:38:32.914Z,46.63
2018-08-09T20:41:01.278Z,47.06
2018-08-09T20:43:29.555Z,45.43
2018-08-09T20:45:58.157Z,45.18
2018-08-09T20:48:26.425Z,45.67
2018-08-09T20:50:54.597Z,45.38
2018-08-09T20:53:22.865Z,45.09
2018-08-09T20:55:51.065Z,45.88
2018-08-09T20:58:19.229Z,46.87
2018-08-09T21:00:47.792Z,47.60
2018-08-09T21:03:16.090Z,49.85
2018-08-09T21:05:44.355Z,52.74
2018-08-09T21:08:12.634Z,54.57
2018-08-09T21:10:40.843Z,53.74
2018-08-09T21:13:09.027Z,53.84
2018-08-09T21:15:37.349Z,54.71
2018-08-09T21:18:05.444Z,54.53
2018-08-09T21:20:33.640Z,58.75
2018-08-09T21:23:01.875Z,55.47
2018-08-09T21:25:30.055Z,56.29
2018-08-09T21:27:58.244Z,56.72
2018-08-09T21:30:26.757Z,59.30
2018-08-09T21:32:54.971Z,61.62
2018-08-09T21:35:23.266Z,61.52
2018-08-09T21:37:51.746Z,61.73
2018-08-09T21:40:19.938Z,66.19
2018-08-09T21:42:48.394Z,68.56
2018-08-09T21:45:17.751Z,62.36
2018-08-09T21:47:45.955Z,67.40
2018-08-09T21:50:16.118Z,62.41
2018-08-09T21:52:44.340Z,62.89
2018-08-09T21:55:13.196Z,59.21
2018-08-09T21:57:42.638Z,59.74
2018-08-09T22:00:49.433Z,62.08
2018-08-09T22:03:19.798Z,59.85
2018-08-09T22:05:53.344Z,60.73
2018-08-09T22:08:26.949Z,60.73
2018-08-09T22:11:00.586Z,60.37
2018-08-09T22:13:34.208Z,61.43
2018-08-09T22:16:07.813Z,61.65
2018-08-09T22:18:41.398Z,62.53
2018-08-09T22:21:14.852Z,66.29
2018-08-09T22:23:43.037Z,67.82
2018-08-09T22:26:11.965Z,68.60
2018-08-09T22:28:40.154Z,70.21
2018-08-09T22:31:08.350Z,72.94
2018-08-09T22:33:36.562Z,72.90
2018-08-09T22:36:05.081Z,74.98
2018-08-09T22:38:33.256Z,73.33
2018-08-09T22:41:02.506Z,73.27
2018-08-09T22:43:31.200Z,75.47
2018-08-09T22:45:59.382Z,75.75
2018-08-09T22:48:27.832Z,76.51
2018-08-09T22:50:56.045Z,78.62
2018-08-09T22:53:24.281Z,80.72
2018-08-09T22:55:52.453Z,82.82
2018-08-09T22:58:21.053Z,83.71
2018-08-09T23:00:49.639Z,89.11
2018-08-09T23:03:17.805Z,87.17
2018-08-09T23:05:46.067Z,91.32
2018-08-09T23:08:15.498Z,95.05
2018-08-09T23:10:44.405Z,93.90
2018-08-09T23:13:13.931Z,93.81
2018-08-09T23:15:43.241Z,98.05
2018-08-09T23:18:11.458Z,100.00
2018-08-09T23:20:40.000Z,100.00
2018-08-09T23:23:08.213Z,100.00
2018-08-09T23:25:36.699Z,100.00
2018-08-09T23:28:05.301Z,100.00
2018-08-09T23:30:33.538Z,100.00
2018-08-09T23:33:01.814Z,100.00
2018-08-09T23:35:30.034Z,100.00
2018-08-09T23:37:58.284Z,100.00
2018-08-09T23:40:26.481Z,100.00
2018-08-09T23:42:54.659Z,100.00
2018-08-09T23:45:22.820Z,100.00
2018-08-09T23:47:51.160Z,100.00
2018-08-09T23:50:19.356Z,100.00
2018-08-09T23:52:47.542Z,100.00
2018-08-09T23:55:17.478Z,100.00
2018-08-09T23:57:45.690Z,100.00
